Time;durP1;ratioP1;P1;durP2;ratioP2;P2;SDS_P1;SDS_P2;PMS_P1;PMS_P2;Temp;Humidity;BMP_temperature;BMP_pressure;BME280_temperature;BME280_humidity;BME280_pressure;Samples;Min_cycle;Max_cycle;Signal;HPM_P1;HPM_P2
2022/01/02 00:01:37;;;;;;;7.70;5.33;;;12.20;99.90;;;;;;5052315;28;20457;-51
2022/01/02 00:04:05;;;;;;;9.97;5.63;;;12.20;99.90;;;;;;5052385;28;20765;-50
2022/01/02 00:06:33;;;;;;;9.90;5.73;;;12.10;99.90;;;;;;5052433;28;20435;-50
2022/01/02 00:09:04;;;;;;;7.03;5.00;;;12.10;99.90;;;;;;5051947;28;20432;-50
2022/01/02 00:11:32;;;;;;;10.33;5.70;;;12.10;99.90;;;;;;5052216;28;20457;-50
2022/01/02 00:14:07;;;;;;;8.37;5.60;;;11.90;99.90;;;;;;5052335;28;20435;-50
2022/01/02 00:16:35;;;;;;;8.57;6.20;;;12.10;99.90;;;;;;5052090;28;20551;-49
2022/01/02 00:19:07;;;;;;;8.50;5.37;;;11.80;99.90;;;;;;5051718;28;20531;-50
2022/01/02 00:21:38;;;;;;;10.63;6.03;;;11.90;99.90;;;;;;5052103;28;20921;-48
2022/01/02 00:24:12;;;;;;;7.30;5.70;;;12.00;99.90;;;;;;5051907;28;20486;-51
2022/01/02 00:26:43;;;;;;;7.50;5.37;;;11.90;99.90;;;;;;5052065;28;20403;-50
2022/01/02 00:29:10;;;;;;;13.70;6.30;;;11.90;99.90;;;;;;5051301;28;20473;-50
2022/01/02 00:31:39;;;;;;;8.63;5.23;;;11.90;99.90;;;;;;5051729;28;20847;-50
2022/01/02 00:34:06;;;;;;;6.80;4.90;;;11.90;99.90;;;;;;5051370;28;20803;-50
2022/01/02 00:36:33;;;;;;;9.60;6.23;;;11.90;99.90;;;;;;5034062;28;20472;-50
2022/01/02 00:39:00;;;;;;;16.27;7.30;;;11.90;99.90;;;;;;5051242;28;20887;-49
2022/01/02 00:41:34;;;;;;;9.70;6.17;;;11.80;99.90;;;;;;5033477;28;20990;-50
2022/01/02 00:44:12;;;;;;;10.63;6.53;;;11.80;99.90;;;;;;5051711;28;20442;-50
2022/01/02 00:46:47;;;;;;;8.80;5.63;;;11.70;99.90;;;;;;5051486;28;20451;-50
2022/01/02 00:49:18;;;;;;;9.83;6.60;;;11.70;99.90;;;;;;5050983;28;20944;-50
2022/01/02 00:51:50;;;;;;;13.87;7.77;;;11.70;99.90;;;;;;5051527;28;20458;-50
2022/01/02 00:54:18;;;;;;;10.93;6.50;;;11.60;99.90;;;;;;5051422;28;20866;-50
2022/01/02 00:56:47;;;;;;;12.10;6.97;;;11.60;99.90;;;;;;5051803;28;20477;-50
2022/01/02 00:59:26;;;;;;;8.00;6.53;;;11.60;99.90;;;;;;5050760;28;20426;-52
2022/01/02 01:01:59;;;;;;;9.30;7.70;;;11.60;99.90;;;;;;5033310;28;20621;-52
2022/01/02 01:04:30;;;;;;;13.50;7.10;;;11.60;99.90;;;;;;5033332;28;20449;-51
2022/01/02 01:07:02;;;;;;;10.93;6.43;;;11.50;99.90;;;;;;5051394;28;20432;-52
2022/01/02 01:09:30;;;;;;;14.43;7.40;;;11.40;99.90;;;;;;5050610;28;20430;-52
2022/01/02 01:11:58;;;;;;;11.67;7.03;;;11.50;99.90;;;;;;5033110;28;20541;-49
2022/01/02 01:14:27;;;;;;;10.47;7.30;;;11.50;99.90;;;;;;5033040;28;20455;-52
2022/01/02 01:16:54;;;;;;;11.30;7.37;;;11.50;99.90;;;;;;5032920;28;20497;-52
2022/01/02 01:19:22;;;;;;;11.03;7.83;;;11.50;99.90;;;;;;5032625;28;20890;-52
2022/01/02 01:21:49;;;;;;;15.20;7.70;;;11.50;99.90;;;;;;5033238;28;20483;-52
2022/01/02 01:24:18;;;;;;;9.23;6.63;;;11.50;99.90;;;;;;5032844;28;20616;-49
2022/01/02 01:26:48;;;;;;;12.13;7.60;;;11.30;99.90;;;;;;5033076;28;20449;-52
2022/01/02 01:29:14;;;;;;;13.00;8.53;;;11.50;99.90;;;;;;5050561;28;20504;-52
2022/01/02 01:31:43;;;;;;;11.10;6.53;;;11.40;99.90;;;;;;5050325;28;20976;-51
2022/01/02 01:34:11;;;;;;;9.27;6.60;;;11.50;99.90;;;;;;5033352;28;20453;-49
2022/01/02 01:36:39;;;;;;;11.27;7.10;;;11.50;99.90;;;;;;5032531;28;20481;-50
2022/01/02 01:39:05;;;;;;;9.43;7.03;;;11.50;99.90;;;;;;5032781;28;20865;-52
2022/01/02 01:41:35;;;;;;;10.40;7.43;;;11.50;99.90;;;;;;5032637;28;20479;-52
2022/01/02 01:44:20;;;;;;;10.50;8.47;;;11.40;99.90;;;;;;5033070;28;20447;-53
2022/01/02 01:46:51;;;;;;;10.50;7.20;;;11.40;99.90;;;;;;5032679;28;20460;-52
2022/01/02 01:49:20;;;;;;;11.57;7.80;;;11.50;99.90;;;;;;5032413;28;20477;-49
2022/01/02 01:51:48;;;;;;;9.30;7.80;;;11.50;99.90;;;;;;5032502;28;20991;-52
2022/01/02 01:54:16;;;;;;;10.67;6.40;;;11.50;99.90;;;;;;5036130;28;20478;-52
2022/01/02 01:56:45;;;;;;;10.97;7.00;;;11.50;99.90;;;;;;5036507;28;20482;-49
2022/01/02 01:59:13;;;;;;;9.17;6.57;;;11.50;99.90;;;;;;5036633;28;20979;-51
2022/01/02 02:01:39;;;;;;;12.50;7.33;;;11.50;99.90;;;;;;5036569;28;20490;-53
2022/01/02 02:04:08;;;;;;;14.43;7.60;;;11.40;99.90;;;;;;5036775;28;20991;-49
2022/01/02 02:06:36;;;;;;;9.53;7.10;;;11.40;99.90;;;;;;5036571;28;20502;-50
2022/01/02 02:09:04;;;;;;;8.60;6.73;;;11.40;99.90;;;;;;5036346;28;20449;-50
2022/01/02 02:11:33;;;;;;;8.57;6.87;;;11.40;99.90;;;;;;5036651;28;20505;-50
2022/01/02 02:14:00;;;;;;;10.43;6.93;;;11.40;99.90;;;;;;5036758;28;20448;-50
2022/01/02 02:16:28;;;;;;;8.60;7.17;;;11.20;99.90;;;;;;5036062;28;21009;-50
2022/01/02 02:18:56;;;;;;;12.07;8.07;;;11.30;99.90;;;;;;5036177;28;20854;-50
2022/01/02 02:21:32;;;;;;;8.90;7.13;;;11.30;99.90;;;;;;5036241;28;20494;-50
2022/01/02 02:24:00;;;;;;;8.70;7.03;;;11.30;99.90;;;;;;5054682;28;20440;-51
2022/01/02 02:26:27;;;;;;;9.33;6.80;;;11.30;99.90;;;;;;5036236;28;20455;-51
2022/01/02 02:28:54;;;;;;;10.37;7.43;;;11.30;99.90;;;;;;5035887;28;20449;-51
2022/01/02 02:31:20;;;;;;;8.60;7.10;;;11.20;99.90;;;;;;5035977;28;20481;-50
2022/01/02 02:33:47;;;;;;;9.20;7.40;;;11.20;99.90;;;;;;5036295;28;20449;-50
2022/01/02 02:36:14;;;;;;;7.93;6.40;;;11.20;99.90;;;;;;5035981;28;20464;-50
2022/01/02 02:38:42;;;;;;;12.30;6.67;;;11.20;99.90;;;;;;5036129;28;20551;-50
2022/01/02 02:41:09;;;;;;;8.00;6.43;;;11.10;99.90;;;;;;5035811;28;20480;-49
2022/01/02 02:43:43;;;;;;;10.33;7.27;;;11.10;99.90;;;;;;5054472;28;20443;-50
2022/01/02 02:49:03;;;;;;;11.97;6.77;;;11.10;99.90;;;;;;5035618;28;20441;-50
2022/01/02 02:51:40;;;;;;;10.20;7.73;;;11.10;99.90;;;;;;5035782;28;20468;-51
2022/01/02 02:54:10;;;;;;;7.53;6.43;;;11.10;99.90;;;;;;5036087;28;20963;-51
2022/01/02 02:56:45;;;;;;;17.90;6.70;;;11.10;99.90;;;;;;5035806;28;20472;-50
2022/01/02 02:59:13;;;;;;;9.37;6.60;;;11.10;99.90;;;;;;5035469;28;20456;-51
2022/01/02 03:01:41;;;;;;;13.87;7.23;;;10.90;99.90;;;;;;5035568;28;20481;-50
2022/01/02 03:04:08;;;;;;;9.80;6.83;;;11.00;99.90;;;;;;5053830;28;20444;-50
2022/01/02 03:06:34;;;;;;;10.30;6.70;;;11.00;99.90;;;;;;5035716;28;20486;-50
2022/01/02 03:09:07;;;;;;;8.70;5.97;;;11.00;99.90;;;;;;5053132;28;20437;-51
2022/01/02 03:11:37;;;;;;;7.97;6.07;;;10.90;99.90;;;;;;5053358;28;20551;-51
2022/01/02 03:14:04;;;;;;;6.67;5.97;;;11.00;99.90;;;;;;5035508;28;20463;-51
2022/01/02 03:16:31;;;;;;;10.17;6.13;;;11.00;99.90;;;;;;5053200;28;20482;-51
2022/01/02 03:18:58;;;;;;;8.33;6.37;;;11.00;99.90;;;;;;5035050;28;20449;-50
2022/01/02 03:21:26;;;;;;;13.27;6.57;;;10.80;99.90;;;;;;5035462;28;20473;-51
2022/01/02 03:23:53;;;;;;;11.17;6.77;;;11.00;99.90;;;;;;5035568;28;20453;-51
2022/01/02 03:26:20;;;;;;;7.80;5.90;;;10.90;99.90;;;;;;5035538;28;20498;-51
2022/01/02 03:28:48;;;;;;;9.23;6.40;;;10.90;99.90;;;;;;5034865;28;20448;-51
2022/01/02 03:31:15;;;;;;;8.00;6.60;;;10.90;99.90;;;;;;5052875;28;20558;-50
2022/01/02 03:33:42;;;;;;;8.03;6.57;;;10.90;99.90;;;;;;5035104;28;20453;-50
2022/01/02 03:36:09;;;;;;;6.43;5.77;;;10.90;99.90;;;;;;5053260;28;20445;-50
2022/01/02 03:38:37;;;;;;;7.67;5.87;;;10.90;99.90;;;;;;5034452;28;20575;-50
2022/01/02 03:41:04;;;;;;;8.17;5.40;;;10.90;99.90;;;;;;5034852;28;20469;-51
2022/01/02 03:43:31;;;;;;;12.30;5.57;;;10.90;99.90;;;;;;5034746;28;20457;-50
2022/01/02 03:46:02;;;;;;;7.70;5.47;;;10.90;99.90;;;;;;5035074;28;20953;-51
2022/01/02 03:48:31;;;;;;;7.43;5.97;;;10.90;99.90;;;;;;5034550;28;20673;-51
2022/01/02 03:50:59;;;;;;;6.77;5.30;;;10.50;99.90;;;;;;5034883;28;21086;-50
2022/01/02 03:53:26;;;;;;;7.13;5.60;;;10.90;99.90;;;;;;5034795;28;20955;-50
2022/01/02 03:55:53;;;;;;;7.50;5.63;;;11.00;99.90;;;;;;5052788;28;20771;-51
2022/01/02 03:58:20;;;;;;;7.00;5.60;;;10.50;99.90;;;;;;5034082;28;20479;-50
2022/01/02 04:00:47;;;;;;;9.70;6.10;;;10.80;99.90;;;;;;5034678;28;20523;-51
2022/01/02 04:03:15;;;;;;;7.13;5.53;;;10.80;99.90;;;;;;5034793;28;20544;-50
2022/01/02 04:05:42;;;;;;;13.47;6.40;;;10.70;99.90;;;;;;5052761;28;20449;-51
2022/01/02 04:08:09;;;;;;;9.20;6.60;;;10.80;99.90;;;;;;5052069;28;20427;-50
2022/01/02 04:10:36;;;;;;;10.53;6.10;;;10.80;99.90;;;;;;5034477;28;20448;-50
2022/01/02 04:13:03;;;;;;;10.13;6.63;;;10.80;99.90;;;;;;5052111;28;20804;-51
2022/01/02 04:15:32;;;;;;;9.07;5.83;;;10.80;99.90;;;;;;5033986;28;20541;-50
2022/01/02 04:17:58;;;;;;;7.70;6.17;;;10.80;99.90;;;;;;5033935;28;20484;-51
2022/01/02 04:20:26;;;;;;;11.90;6.97;;;10.80;99.90;;;;;;5034252;28;20895;-49
2022/01/02 04:22:53;;;;;;;10.83;6.50;;;10.80;99.90;;;;;;5034204;28;20494;-50
2022/01/02 04:25:20;;;;;;;9.07;5.87;;;10.80;99.90;;;;;;5034174;28;20539;-51
2022/01/02 04:27:47;;;;;;;9.37;6.40;;;10.80;99.90;;;;;;5033810;28;20492;-51
2022/01/02 04:30:14;;;;;;;9.67;6.20;;;10.70;99.90;;;;;;5034192;28;20475;-50
2022/01/02 04:32:42;;;;;;;9.70;6.60;;;10.70;99.90;;;;;;5034042;28;20486;-51
2022/01/02 04:35:09;;;;;;;9.97;7.30;;;10.70;99.90;;;;;;5033880;28;20533;-51
2022/01/02 04:37:39;;;;;;;9.77;6.37;;;10.70;99.90;;;;;;5034037;28;20472;-51
2022/01/02 04:40:07;;;;;;;9.33;6.63;;;10.70;99.90;;;;;;5033760;28;20536;-51
2022/01/02 04:42:33;;;;;;;15.30;9.20;;;10.70;99.90;;;;;;5051505;28;20550;-49
2022/01/02 04:45:01;;;;;;;12.17;6.70;;;10.70;99.90;;;;;;5033739;28;20459;-51
2022/01/02 04:47:29;;;;;;;9.13;5.93;;;10.70;99.90;;;;;;5033762;28;20453;-51
2022/01/02 04:49:56;;;;;;;8.83;7.00;;;10.60;99.90;;;;;;5033298;28;20484;-51
2022/01/02 04:52:23;;;;;;;6.50;5.73;;;10.40;99.90;;;;;;5033810;28;20464;-51
2022/01/02 04:54:52;;;;;;;7.97;6.00;;;10.60;99.90;;;;;;5051556;28;20451;-52
2022/01/02 04:57:20;;;;;;;6.47;5.70;;;10.40;99.90;;;;;;5033452;28;20485;-51
2022/01/02 04:59:46;;;;;;;8.00;6.00;;;10.60;99.90;;;;;;5033194;28;20498;-51
2022/01/02 05:02:13;;;;;;;12.53;7.23;;;10.60;99.90;;;;;;5033576;28;20472;-51
2022/01/02 05:04:42;;;;;;;7.20;6.30;;;10.60;99.90;;;;;;5033473;28;20444;-51
2022/01/02 05:07:11;;;;;;;8.90;5.70;;;10.60;99.90;;;;;;5033398;28;21019;-51
2022/01/02 05:09:39;;;;;;;8.27;6.70;;;10.60;99.90;;;;;;5032882;28;20439;-51
2022/01/02 05:12:08;;;;;;;8.17;6.93;;;10.60;99.90;;;;;;5033209;28;20574;-51
2022/01/02 05:14:34;;;;;;;9.40;6.80;;;10.60;99.90;;;;;;5033400;28;20458;-50
2022/01/02 05:17:01;;;;;;;7.80;7.00;;;10.30;99.90;;;;;;5033338;28;20566;-51
2022/01/02 05:19:28;;;;;;;10.93;6.37;;;10.40;99.90;;;;;;5032828;28;20427;-50
2022/01/02 05:21:54;;;;;;;11.67;6.80;;;10.40;99.90;;;;;;5051079;28;20456;-51
2022/01/02 05:24:21;;;;;;;10.13;6.30;;;10.40;99.90;;;;;;5033143;28;20529;-52
2022/01/02 05:26:48;;;;;;;13.60;6.53;;;10.40;99.90;;;;;;5032775;28;20455;-51
2022/01/02 05:29:16;;;;;;;9.60;6.80;;;10.40;99.90;;;;;;5032317;28;20474;-51
2022/01/02 05:31:43;;;;;;;12.57;6.53;;;10.40;99.90;;;;;;5057607;22;20500;-51
2022/01/02 05:34:10;;;;;;;10.30;6.83;;;10.40;99.90;;;;;;5033585;28;20875;-51
2022/01/02 05:36:37;;;;;;;9.73;6.87;;;10.30;99.90;;;;;;5033750;28;20454;-51
2022/01/02 05:39:04;;;;;;;11.00;6.93;;;10.40;99.90;;;;;;5033315;28;21071;-50
2022/01/02 05:41:33;;;;;;;9.73;6.93;;;10.40;99.90;;;;;;5033241;28;20476;-50
2022/01/02 05:44:00;;;;;;;8.00;6.53;;;10.40;99.90;;;;;;5051691;28;20432;-49
2022/01/02 05:46:28;;;;;;;8.20;6.77;;;10.30;99.90;;;;;;5051328;28;20424;-49
2022/01/02 05:48:55;;;;;;;8.97;6.13;;;10.20;99.90;;;;;;5033030;28;20457;-49
2022/01/02 05:51:21;;;;;;;9.30;6.27;;;10.50;99.90;;;;;;5033042;28;20998;-50
2022/01/02 05:53:48;;;;;;;8.80;6.60;;;10.40;99.90;;;;;;5033481;28;20455;-50
2022/01/02 05:56:15;;;;;;;9.50;6.87;;;10.40;99.90;;;;;;5033196;28;20454;-49
2022/01/02 05:58:42;;;;;;;9.67;6.47;;;10.40;99.90;;;;;;5032928;28;20472;-50
2022/01/02 06:01:08;;;;;;;10.50;7.00;;;10.40;99.90;;;;;;5032811;28;21091;-50
2022/01/02 06:03:36;;;;;;;10.33;7.07;;;10.30;99.90;;;;;;5033225;28;20731;-51
2022/01/02 06:06:03;;;;;;;9.63;6.77;;;10.30;99.90;;;;;;5033212;28;20677;-50
2022/01/02 06:08:30;;;;;;;11.37;7.13;;;10.30;99.90;;;;;;5050699;28;20428;-49
2022/01/02 06:10:57;;;;;;;13.57;7.47;;;10.30;99.90;;;;;;5032890;28;20452;-49
2022/01/02 06:13:24;;;;;;;9.47;7.00;;;10.30;99.90;;;;;;5033213;28;20463;-49
2022/01/02 06:15:51;;;;;;;8.77;6.67;;;10.20;99.90;;;;;;5033163;28;20802;-49
2022/01/02 06:18:19;;;;;;;6.53;5.73;;;10.20;99.90;;;;;;5032473;28;20474;-49
2022/01/02 06:20:47;;;;;;;9.10;6.33;;;10.20;99.90;;;;;;5032798;28;20470;-50
2022/01/02 06:23:15;;;;;;;10.83;6.80;;;10.30;99.90;;;;;;5033175;28;20515;-51
2022/01/02 06:25:43;;;;;;;12.50;6.83;;;10.30;99.90;;;;;;5032849;28;20454;-48
2022/01/02 06:28:10;;;;;;;8.50;6.80;;;10.30;99.90;;;;;;5032742;28;20722;-49
2022/01/02 06:30:37;;;;;;;8.77;6.90;;;10.10;99.90;;;;;;5032615;28;20937;-49
2022/01/02 06:33:04;;;;;;;8.10;6.00;;;10.30;99.90;;;;;;5032850;28;20549;-49
2022/01/02 06:35:33;;;;;;;7.27;6.20;;;10.30;99.90;;;;;;5032992;28;21005;-50
2022/01/02 06:38:10;;;;;;;8.10;6.30;;;10.20;99.90;;;;;;5032525;28;20538;-49
2022/01/02 06:40:37;;;;;;;9.93;6.70;;;10.20;99.90;;;;;;5036446;28;20467;-50
2022/01/02 06:43:03;;;;;;;10.67;6.70;;;10.10;99.90;;;;;;5036593;28;20814;-49
2022/01/02 06:45:30;;;;;;;9.87;6.17;;;10.40;99.90;;;;;;5036835;28;20470;-50
2022/01/02 06:47:57;;;;;;;10.53;6.87;;;10.30;99.90;;;;;;5035960;28;20885;-50
2022/01/02 06:50:23;;;;;;;11.13;6.30;;;10.30;99.90;;;;;;5054756;28;20471;-49
2022/01/02 06:52:50;;;;;;;10.17;6.27;;;10.40;99.90;;;;;;5036451;28;20474;-49
2022/01/02 06:55:18;;;;;;;10.90;6.60;;;10.40;99.90;;;;;;5054327;28;20442;-51
2022/01/02 06:57:45;;;;;;;8.30;6.10;;;10.50;99.90;;;;;;5036047;28;20455;-50
2022/01/02 07:00:14;;;;;;;9.10;6.10;;;10.50;99.90;;;;;;5036770;28;20452;-48
2022/01/02 07:02:40;;;;;;;7.83;5.80;;;10.50;99.90;;;;;;5036418;28;20467;-48
2022/01/02 07:05:08;;;;;;;9.50;6.60;;;10.50;99.90;;;;;;5036409;28;20454;-50
2022/01/02 07:07:40;;;;;;;9.20;6.10;;;10.50;99.90;;;;;;5036707;28;20454;-49
2022/01/02 07:10:07;;;;;;;9.07;6.47;;;10.50;99.90;;;;;;5036076;28;20476;-50
2022/01/02 07:12:36;;;;;;;8.20;4.90;;;10.60;99.90;;;;;;5053966;28;20464;-50
2022/01/02 07:15:03;;;;;;;8.73;6.03;;;10.60;99.90;;;;;;5035982;28;20506;-50
2022/01/02 07:17:29;;;;;;;8.83;5.23;;;10.60;99.90;;;;;;5053872;28;20437;-50
2022/01/02 07:19:56;;;;;;;7.83;5.63;;;10.70;99.90;;;;;;5053325;28;20775;-49
2022/01/02 07:22:23;;;;;;;9.10;6.20;;;10.90;99.90;;;;;;5053587;28;20460;-49
2022/01/02 07:24:51;;;;;;;9.93;5.47;;;10.60;99.90;;;;;;5053781;28;20439;-50
2022/01/02 07:27:18;;;;;;;8.63;6.00;;;10.70;99.90;;;;;;5053879;28;20438;-50
2022/01/02 07:29:46;;;;;;;6.63;5.47;;;10.70;99.90;;;;;;5053252;28;20436;-49
2022/01/02 07:32:12;;;;;;;7.03;5.43;;;10.60;99.90;;;;;;5053266;28;20470;-49
2022/01/02 07:34:39;;;;;;;6.77;5.00;;;10.90;99.90;;;;;;5053474;28;20435;-50
2022/01/02 07:37:06;;;;;;;5.47;4.60;;;10.70;99.90;;;;;;5053086;28;20444;-51
2022/01/02 07:39:33;;;;;;;8.70;5.77;;;10.60;99.90;;;;;;5053295;28;20484;-50
2022/01/02 07:41:59;;;;;;;9.43;5.93;;;10.70;99.90;;;;;;5053283;28;20497;-49
2022/01/02 07:44:34;;;;;;;8.60;5.60;;;10.50;99.90;;;;;;5035689;28;21024;-50
2022/01/02 07:47:01;;;;;;;10.17;5.57;;;10.80;99.90;;;;;;5053731;28;20413;-50
2022/01/02 07:49:28;;;;;;;7.40;4.90;;;10.80;99.90;;;;;;5052896;28;20443;-50
2022/01/02 07:51:55;;;;;;;7.90;6.47;;;10.80;99.90;;;;;;5052387;28;20466;-50
2022/01/02 07:54:21;;;;;;;10.50;5.63;;;10.80;99.90;;;;;;5053526;28;20446;-49
2022/01/02 07:56:48;;;;;;;7.50;4.93;;;10.80;99.90;;;;;;5053265;28;20431;-50
2022/01/02 07:59:14;;;;;;;8.43;5.83;;;10.60;99.90;;;;;;5052693;28;20544;-49
2022/01/02 08:01:41;;;;;;;6.37;4.73;;;10.80;99.90;;;;;;5053020;28;20497;-50
2022/01/02 08:04:09;;;;;;;34.10;12.20;;;10.80;99.90;;;;;;5053009;28;20439;-50
2022/01/02 08:06:36;;;;;;;7.10;5.40;;;10.70;99.90;;;;;;5053258;28;20440;-49
2022/01/02 08:09:03;;;;;;;6.17;5.10;;;10.90;99.90;;;;;;5052464;28;20443;-50
2022/01/02 08:11:29;;;;;;;7.33;4.50;;;10.90;99.90;;;;;;5052929;28;20456;-50
2022/01/02 08:13:56;;;;;;;7.83;4.93;;;10.80;99.90;;;;;;5034924;28;20822;-50
2022/01/02 08:16:23;;;;;;;6.20;4.97;;;11.00;99.90;;;;;;5052811;28;20458;-51
2022/01/02 08:18:49;;;;;;;6.30;5.10;;;11.00;99.90;;;;;;5034153;28;20491;-49
2022/01/02 08:21:17;;;;;;;5.73;4.90;;;11.10;99.90;;;;;;5052680;28;20451;-49
2022/01/02 08:23:44;;;;;;;8.57;5.30;;;11.10;99.90;;;;;;5052491;28;20443;-50
2022/01/02 08:26:10;;;;;;;7.17;4.83;;;11.10;99.90;;;;;;5052971;28;20539;-50
2022/01/02 08:28:37;;;;;;;10.70;5.03;;;11.10;99.90;;;;;;5052020;28;20436;-51
2022/01/02 08:31:04;;;;;;;5.97;4.90;;;11.10;99.90;;;;;;5052333;28;20921;-50
2022/01/02 08:33:31;;;;;;;7.27;4.50;;;11.20;99.90;;;;;;5052308;28;20501;-50
2022/01/02 08:35:58;;;;;;;8.57;4.17;;;11.20;99.90;;;;;;5052846;28;20896;-50
2022/01/02 08:38:27;;;;;;;6.20;3.63;;;11.20;99.90;;;;;;5051949;28;20479;-50
2022/01/02 08:40:53;;;;;;;6.77;4.17;;;11.30;99.90;;;;;;5052027;28;20470;-50
2022/01/02 08:43:20;;;;;;;6.47;4.80;;;11.30;99.90;;;;;;5052038;28;20441;-49
2022/01/02 08:45:47;;;;;;;5.70;4.40;;;11.40;99.90;;;;;;5052358;28;20479;-49
2022/01/02 08:48:13;;;;;;;5.57;4.13;;;11.40;99.90;;;;;;5051613;28;20449;-49
2022/01/02 08:50:40;;;;;;;8.60;5.13;;;11.40;99.90;;;;;;5052655;28;20454;-49
2022/01/02 08:53:07;;;;;;;9.10;4.23;;;11.40;99.90;;;;;;5051848;28;20465;-50
2022/01/02 08:55:35;;;;;;;6.83;4.50;;;11.50;99.90;;;;;;5051881;28;20432;-52
2022/01/02 08:58:02;;;;;;;10.73;4.70;;;11.60;99.90;;;;;;5051646;28;20777;-49
2022/01/02 09:00:29;;;;;;;8.07;4.37;;;11.60;99.90;;;;;;5052096;28;20519;-48
2022/01/02 09:02:55;;;;;;;5.80;3.67;;;11.40;99.90;;;;;;5052131;28;20968;-48
2022/01/02 09:05:22;;;;;;;5.37;4.33;;;11.60;99.90;;;;;;5051674;28;20444;-50
2022/01/02 09:07:49;;;;;;;8.27;5.30;;;11.60;99.90;;;;;;5051672;28;20441;-51
2022/01/02 09:10:16;;;;;;;7.77;4.77;;;11.60;99.90;;;;;;5052006;28;20850;-50
2022/01/02 09:12:44;;;;;;;9.90;5.00;;;11.70;99.90;;;;;;5051625;28;20966;-50
2022/01/02 09:15:11;;;;;;;7.27;4.80;;;11.70;99.90;;;;;;5051507;28;20452;-50
2022/01/02 09:17:38;;;;;;;6.03;4.87;;;11.70;99.90;;;;;;5051626;28;20514;-49
2022/01/02 09:20:05;;;;;;;6.20;4.30;;;11.70;99.90;;;;;;5051393;28;20576;-50
2022/01/02 09:22:32;;;;;;;7.07;4.37;;;11.70;99.90;;;;;;5051429;28;20468;-49
2022/01/02 09:24:59;;;;;;;6.30;4.27;;;11.80;99.90;;;;;;5051201;28;20450;-50
2022/01/02 09:27:25;;;;;;;6.67;4.60;;;11.80;99.90;;;;;;5051461;28;20926;-49
2022/01/02 09:29:53;;;;;;;12.40;4.20;;;11.90;99.90;;;;;;5050976;28;20791;-50
2022/01/02 09:32:20;;;;;;;8.10;4.03;;;11.70;99.90;;;;;;5051540;28;20801;-50
2022/01/02 09:34:47;;;;;;;6.97;3.90;;;11.90;99.90;;;;;;5051305;28;20448;-51
2022/01/02 09:37:13;;;;;;;8.00;4.40;;;11.90;99.90;;;;;;5050994;28;20433;-50
2022/01/02 09:39:40;;;;;;;12.00;4.40;;;12.00;99.90;;;;;;5050634;28;20489;-49
2022/01/02 09:42:07;;;;;;;11.00;4.17;;;11.90;99.90;;;;;;5050886;28;20477;-50
2022/01/02 09:44:33;;;;;;;6.37;4.00;;;12.00;99.90;;;;;;5051498;28;20442;-50
2022/01/02 09:47:01;;;;;;;4.93;3.57;;;12.00;99.90;;;;;;5051180;28;20486;-50
2022/01/02 09:49:29;;;;;;;6.20;4.10;;;12.10;99.90;;;;;;5050916;28;20434;-50
2022/01/02 09:51:56;;;;;;;9.13;4.00;;;12.00;99.90;;;;;;5051279;28;20862;-49
2022/01/02 09:54:23;;;;;;;5.47;3.80;;;12.10;99.90;;;;;;5051519;28;20448;-51
2022/01/02 09:56:49;;;;;;;6.43;4.70;;;12.10;99.90;;;;;;5051428;28;20925;-50
2022/01/02 09:59:18;;;;;;;7.83;4.40;;;12.20;99.90;;;;;;5050936;28;20479;-50
2022/01/02 10:01:45;;;;;;;5.10;3.70;;;12.20;99.90;;;;;;5051339;28;20481;-50
2022/01/02 10:04:15;;;;;;;7.50;4.50;;;12.30;99.90;;;;;;5051490;28;20442;-49
2022/01/02 10:06:46;;;;;;;8.03;4.50;;;12.30;99.90;;;;;;5050914;28;20983;-50
2022/01/02 10:09:29;;;;;;;10.57;5.10;;;12.30;99.90;;;;;;5050952;28;20412;-49
2022/01/02 10:12:26;;;;;;;7.27;5.00;;;12.40;99.90;;;;;;5051428;28;20457;-51
2022/01/02 10:15:17;;;;;;;12.43;4.40;;;12.40;99.90;;;;;;5053635;28;20442;-50
2022/01/02 10:18:01;;;;;;;6.10;4.70;;;12.40;99.90;;;;;;5054906;28;20518;-50
2022/01/02 10:20:31;;;;;;;7.63;4.67;;;12.40;99.90;;;;;;5054930;28;20467;-51
2022/01/02 10:23:10;;;;;;;11.63;5.20;;;12.40;99.90;;;;;;5054635;28;20754;-49
2022/01/02 10:25:43;;;;;;;9.07;5.50;;;12.50;99.90;;;;;;5054943;28;20798;-51
2022/01/02 10:28:39;;;;;;;13.10;5.07;;;12.40;99.90;;;;;;5054946;28;20921;-50
2022/01/02 10:31:08;;;;;;;7.83;4.23;;;12.30;99.90;;;;;;5008291;28;20480;-53
2022/01/02 10:33:49;;;;;;;12.63;4.70;;;12.50;99.90;;;;;;5054971;28;20458;-49
2022/01/02 10:36:25;;;;;;;6.40;4.70;;;12.50;99.90;;;;;;5054594;28;20411;-49
2022/01/02 10:39:08;;;;;;;11.97;4.87;;;12.40;99.90;;;;;;5054462;28;20418;-52
2022/01/02 10:41:37;;;;;;;13.53;5.20;;;12.60;99.90;;;;;;5054183;28;20467;-52
2022/01/02 10:44:29;;;;;;;8.40;4.57;;;12.50;99.90;;;;;;5054541;28;20441;-51
2022/01/02 10:47:13;;;;;;;13.17;5.13;;;12.60;99.90;;;;;;5053886;28;20460;-51
2022/01/02 10:50:01;;;;;;;8.83;4.87;;;12.60;99.90;;;;;;5054154;28;20491;-51
2022/01/02 10:52:30;;;;;;;7.07;5.00;;;12.60;99.90;;;;;;5054444;28;20431;-53
2022/01/02 10:54:59;;;;;;;8.50;4.73;;;12.60;99.90;;;;;;5054359;28;20445;-51
2022/01/02 10:57:27;;;;;;;6.53;4.30;;;12.50;99.90;;;;;;5054170;28;20765;-50
2022/01/02 10:59:57;;;;;;;10.97;4.70;;;12.50;99.90;;;;;;5053678;28;20483;-50
2022/01/02 11:02:26;;;;;;;9.73;4.90;;;12.50;99.90;;;;;;5053683;28;20990;-50
2022/01/02 11:04:58;;;;;;;10.90;6.40;;;12.50;99.90;;;;;;5053591;28;20797;-51
2022/01/02 11:07:26;;;;;;;6.13;4.30;;;12.30;99.90;;;;;;5053340;28;20434;-51
2022/01/02 11:09:54;;;;;;;11.60;4.40;;;12.50;99.90;;;;;;5054056;28;20936;-49
2022/01/02 11:12:21;;;;;;;7.63;4.23;;;12.50;99.90;;;;;;5053932;28;20633;-50
2022/01/02 11:14:48;;;;;;;8.60;5.50;;;12.40;99.90;;;;;;5053893;28;20440;-50
2022/01/02 11:17:17;;;;;;;10.47;4.93;;;12.40;99.90;;;;;;5053628;28;20438;-51
2022/01/02 11:19:44;;;;;;;7.43;4.80;;;12.40;99.90;;;;;;5053288;28;20566;-50
2022/01/02 11:22:14;;;;;;;7.83;4.80;;;12.40;99.90;;;;;;5053322;28;21048;-51
2022/01/02 11:24:49;;;;;;;7.23;4.80;;;12.40;99.90;;;;;;5053163;28;20764;-51
2022/01/02 11:27:22;;;;;;;7.37;4.47;;;12.40;99.90;;;;;;5053082;28;20426;-51
2022/01/02 11:29:49;;;;;;;10.70;6.63;;;12.40;99.90;;;;;;5053259;28;21001;-50
2022/01/02 11:32:25;;;;;;;11.23;5.23;;;12.40;99.90;;;;;;5095503;22;20951;-51
2022/01/02 11:34:53;;;;;;;8.83;5.90;;;12.40;99.90;;;;;;5093073;28;20455;-50
2022/01/02 11:37:23;;;;;;;11.03;5.27;;;12.30;99.90;;;;;;5093176;28;20445;-51
2022/01/02 11:39:59;;;;;;;10.53;5.47;;;12.40;99.90;;;;;;5092869;28;20464;-50
2022/01/02 11:42:44;;;;;;;7.10;5.43;;;12.40;99.90;;;;;;5092710;28;20467;-51
2022/01/02 11:45:44;;;;;;;9.50;4.97;;;12.40;99.90;;;;;;5093217;28;20463;-51
2022/01/02 11:48:29;;;;;;;14.37;6.00;;;12.50;99.90;;;;;;5092751;28;20511;-50
2022/01/02 11:50:56;;;;;;;9.90;6.07;;;12.40;99.90;;;;;;5093050;28;20440;-50
2022/01/02 11:53:25;;;;;;;14.20;7.13;;;12.40;99.90;;;;;;5092635;28;20515;-51
2022/01/02 11:55:54;;;;;;;15.53;8.57;;;12.20;99.90;;;;;;5092430;28;20483;-51
2022/01/02 11:58:50;;;;;;;12.73;7.50;;;12.40;99.90;;;;;;5092436;28;20926;-51
2022/01/02 12:01:51;;;;;;;9.53;7.10;;;12.40;99.90;;;;;;5092648;28;20514;-50
2022/01/02 12:04:19;;;;;;;15.20;7.77;;;12.40;99.90;;;;;;5092835;28;20442;-50
2022/01/02 12:06:45;;;;;;;11.40;6.80;;;12.30;99.90;;;;;;5092205;28;20426;-50
2022/01/02 12:09:36;;;;;;;13.50;7.27;;;12.40;99.90;;;;;;5092351;28;20421;-51
2022/01/02 12:12:05;;;;;;;8.67;6.53;;;12.40;99.90;;;;;;5092436;28;20788;-51
2022/01/02 12:14:32;;;;;;;10.20;5.90;;;12.40;99.90;;;;;;5092420;28;20453;-49
2022/01/02 12:17:09;;;;;;;8.90;6.50;;;12.40;99.90;;;;;;5074168;28;20440;-51
2022/01/02 12:20:00;;;;;;;11.03;6.50;;;12.30;99.90;;;;;;5091565;28;20497;-51
2022/01/02 12:22:45;;;;;;;10.17;6.53;;;12.30;99.90;;;;;;5092427;28;20542;-50
2022/01/02 12:25:21;;;;;;;12.40;6.80;;;12.30;99.90;;;;;;5092440;28;20446;-50
2022/01/02 12:27:55;;;;;;;9.97;7.10;;;12.30;99.90;;;;;;5091781;28;20462;-51
2022/01/02 12:30:21;;;;;;;13.50;5.97;;;12.10;99.90;;;;;;5091682;28;20806;-51
2022/01/02 12:32:49;;;;;;;10.10;5.57;;;12.20;99.90;;;;;;5091918;28;20475;-49
2022/01/02 12:35:18;;;;;;;7.90;5.57;;;12.30;99.90;;;;;;5091729;28;20793;-52
2022/01/02 12:37:45;;;;;;;7.97;4.97;;;12.20;99.90;;;;;;5090688;28;20462;-52
2022/01/02 12:40:19;;;;;;;11.63;4.70;;;12.10;99.90;;;;;;5091624;28;20557;-51
2022/01/02 12:42:46;;;;;;;9.63;5.50;;;12.20;99.90;;;;;;5091637;28;20466;-51
2022/01/02 12:45:17;;;;;;;10.10;5.73;;;11.90;99.90;;;;;;5091972;28;20525;-51
2022/01/02 12:47:52;;;;;;;11.07;5.20;;;12.20;99.90;;;;;;5090808;28;20788;-50
2022/01/02 12:50:28;;;;;;;7.17;5.23;;;12.20;99.90;;;;;;5091615;28;20466;-50
2022/01/02 12:52:56;;;;;;;10.53;5.87;;;12.10;99.90;;;;;;5091343;28;20459;-52
2022/01/02 12:55:24;;;;;;;8.13;6.17;;;12.20;99.90;;;;;;5091532;28;20602;-49
2022/01/02 12:57:51;;;;;;;11.00;6.40;;;12.10;99.90;;;;;;5091076;28;20485;-51